Time;durP1;ratioP1;P1;durP2;ratioP2;P2;SDS_P1;SDS_P2;PMS_P1;PMS_P2;Temp;Humidity;BMP_temperature;BMP_pressure;BME280_temperature;BME280_humidity;BME280_pressure;Samples;Min_cycle;Max_cycle;Signal;HPM_P1;HPM_P2
2023/04/11 00:00:29;;;;;;;2.00;1.13;;;18.10;65.70;;;;;;5046998;28;20210;-46
2023/04/11 00:03:01;;;;;;;3.13;1.10;;;18.10;65.60;;;;;;5028070;28;20213;-46
2023/04/11 00:05:30;;;;;;;2.73;1.50;;;18.10;65.50;;;;;;5046777;28;20198;-46
2023/04/11 00:08:01;;;;;;;1.67;0.97;;;18.10;65.60;;;;;;5044257;28;20655;-46
2023/04/11 00:10:32;;;;;;;3.57;1.40;;;18.10;65.60;;;;;;5047474;28;20643;-46
2023/04/11 00:13:06;;;;;;;2.70;1.33;;;18.10;65.60;;;;;;5050133;28;20213;-46
2023/04/11 00:15:40;;;;;;;3.27;1.20;;;18.10;65.40;;;;;;5046607;28;20218;-46
2023/04/11 00:18:11;;;;;;;2.90;1.03;;;18.10;65.50;;;;;;5047247;28;20213;-46
2023/04/11 00:20:42;;;;;;;3.10;1.47;;;18.10;65.50;;;;;;5041891;28;20206;-46
2023/04/11 00:23:13;;;;;;;2.60;1.10;;;18.10;65.60;;;;;;5029167;28;20716;-46
2023/04/11 00:25:41;;;;;;;1.93;1.13;;;18.10;65.50;;;;;;5046848;28;20675;-46
2023/04/11 00:28:11;;;;;;;2.80;1.27;;;18.10;65.50;;;;;;5049683;28;20682;-46
2023/04/11 00:30:43;;;;;;;4.07;1.23;;;18.10;65.70;;;;;;5041941;28;20352;-46
2023/04/11 00:33:10;;;;;;;3.63;1.50;;;18.10;65.60;;;;;;5046851;28;20201;-46
2023/04/11 00:35:41;;;;;;;3.80;1.60;;;18.00;65.60;;;;;;5046919;28;20211;-46
2023/04/11 00:38:11;;;;;;;3.50;1.10;;;18.00;65.50;;;;;;5048720;28;20232;-46
2023/04/11 00:40:42;;;;;;;2.77;1.37;;;18.10;65.70;;;;;;5046971;28;20191;-46
2023/04/11 00:43:14;;;;;;;3.47;1.40;;;18.00;65.60;;;;;;5032271;28;20207;-46
2023/04/11 00:45:49;;;;;;;3.90;1.30;;;18.00;65.70;;;;;;5041089;28;20206;-46
2023/04/11 00:48:23;;;;;;;3.23;1.30;;;18.00;65.50;;;;;;5046052;28;20201;-46
2023/04/11 00:50:50;;;;;;;5.40;2.03;;;18.10;65.60;;;;;;5048005;28;20209;-46
2023/04/11 00:53:21;;;;;;;3.30;1.10;;;18.00;65.60;;;;;;5032924;28;20198;-46
2023/04/11 00:55:50;;;;;;;4.20;1.40;;;18.00;65.70;;;;;;5047799;28;20229;-46
2023/04/11 00:58:21;;;;;;;3.77;1.40;;;18.00;65.70;;;;;;5054868;28;20600;-46
2023/04/11 01:00:53;;;;;;;2.70;1.10;;;18.00;65.50;;;;;;5048246;28;20647;-46
2023/04/11 01:03:23;;;;;;;3.77;1.33;;;18.00;65.70;;;;;;5032598;28;20226;-46
2023/04/11 01:05:54;;;;;;;3.83;1.30;;;18.00;65.50;;;;;;5050348;28;20194;-46
2023/04/11 01:08:23;;;;;;;4.20;1.47;;;18.00;65.60;;;;;;5031078;28;20187;-46
2023/04/11 01:10:58;;;;;;;5.20;1.47;;;18.00;65.60;;;;;;5029442;28;20195;-46
2023/04/11 01:13:30;;;;;;;3.37;1.57;;;18.00;65.50;;;;;;5048953;28;20536;-46
2023/04/11 01:15:59;;;;;;;3.13;1.20;;;18.00;65.60;;;;;;5033543;28;20264;-47
2023/04/11 01:18:30;;;;;;;4.10;2.03;;;18.00;65.60;;;;;;5033027;28;20241;-46
2023/04/11 01:20:59;;;;;;;3.53;1.70;;;18.00;65.60;;;;;;5030661;28;20577;-46
2023/04/11 01:23:33;;;;;;;4.90;1.80;;;18.00;65.60;;;;;;5031500;28;20206;-46
2023/04/11 01:26:00;;;;;;;4.60;1.77;;;18.00;65.50;;;;;;5051970;28;20199;-46
2023/04/11 01:28:28;;;;;;;5.17;2.00;;;18.00;65.60;;;;;;5049261;28;20203;-46
2023/04/11 01:30:57;;;;;;;3.87;1.57;;;18.00;65.60;;;;;;5046593;28;20245;-46
2023/04/11 01:33:30;;;;;;;5.07;1.90;;;17.90;65.50;;;;;;5051273;28;20204;-46
2023/04/11 01:35:59;;;;;;;5.17;1.93;;;18.00;65.50;;;;;;5051400;28;20324;-46
2023/04/11 01:38:31;;;;;;;3.73;1.57;;;18.00;65.50;;;;;;5034642;28;20191;-46
2023/04/11 01:41:01;;;;;;;5.20;1.43;;;17.90;65.50;;;;;;5055143;28;20205;-46
2023/04/11 01:43:31;;;;;;;3.13;1.10;;;17.90;65.50;;;;;;5016432;28;20225;-46
2023/04/11 01:46:01;;;;;;;4.40;1.43;;;18.00;65.50;;;;;;5051367;28;20206;-46
2023/04/11 01:48:32;;;;;;;5.73;1.57;;;17.90;65.40;;;;;;5033849;28;20202;-46
2023/04/11 01:51:01;;;;;;;4.20;1.27;;;17.90;65.40;;;;;;5049981;28;20221;-46
2023/04/11 01:53:32;;;;;;;3.37;1.47;;;17.90;65.30;;;;;;5027260;28;20199;-46
2023/04/11 01:56:03;;;;;;;3.83;1.47;;;17.90;65.30;;;;;;5053683;28;20315;-46
2023/04/11 01:58:35;;;;;;;5.30;1.60;;;17.90;65.40;;;;;;5053142;28;20195;-46
2023/04/11 02:01:05;;;;;;;4.17;1.77;;;17.90;65.40;;;;;;5049041;28;20268;-46
2023/04/11 02:03:38;;;;;;;6.13;1.67;;;17.90;65.30;;;;;;5040626;28;20210;-46
2023/04/11 02:06:08;;;;;;;4.70;1.70;;;17.90;65.90;;;;;;5051034;28;20208;-46
2023/04/11 02:08:40;;;;;;;7.07;1.67;;;17.90;65.30;;;;;;5045683;28;20210;-46
2023/04/11 02:11:12;;;;;;;5.63;1.63;;;18.00;65.20;;;;;;5052676;28;20296;-46
2023/04/11 02:13:45;;;;;;;4.83;1.63;;;17.90;65.20;;;;;;5059094;28;20549;-46
2023/04/11 02:16:16;;;;;;;5.27;1.80;;;17.90;65.20;;;;;;5033911;28;20319;-46
2023/04/11 02:18:49;;;;;;;4.80;1.40;;;17.90;65.20;;;;;;5046163;28;20224;-46
2023/04/11 02:21:19;;;;;;;4.47;1.43;;;17.90;65.10;;;;;;5038402;28;20209;-46
2023/04/11 02:23:51;;;;;;;4.43;1.47;;;17.90;65.10;;;;;;5034160;28;20281;-46
2023/04/11 02:26:25;;;;;;;4.47;2.00;;;17.90;65.00;;;;;;5051272;28;20198;-46
2023/04/11 02:28:55;;;;;;;4.93;1.47;;;17.90;65.10;;;;;;5038422;28;20249;-46
2023/04/11 02:31:26;;;;;;;4.57;1.57;;;17.90;65.10;;;;;;5047707;28;20366;-46
2023/04/11 02:33:56;;;;;;;4.90;1.73;;;17.90;65.00;;;;;;5050962;28;20206;-46
2023/04/11 02:36:27;;;;;;;5.70;2.03;;;17.90;65.10;;;;;;5050535;28;20221;-46
2023/04/11 02:38:57;;;;;;;3.63;1.73;;;17.80;65.00;;;;;;5048630;28;20218;-46
2023/04/11 02:41:28;;;;;;;4.53;1.67;;;17.90;65.10;;;;;;5039232;28;20315;-46
2023/04/11 02:43:59;;;;;;;5.40;2.03;;;17.80;65.00;;;;;;5052042;28;20217;-46
2023/04/11 02:46:30;;;;;;;6.03;1.97;;;17.90;65.00;;;;;;5052947;28;20255;-46
2023/04/11 02:48:59;;;;;;;3.73;1.50;;;17.80;65.00;;;;;;5051050;28;20187;-46
2023/04/11 02:51:32;;;;;;;6.90;2.00;;;17.90;64.90;;;;;;5051123;28;20229;-46
2023/04/11 02:54:05;;;;;;;4.70;1.63;;;17.80;64.80;;;;;;5033723;28;20202;-46
2023/04/11 02:56:37;;;;;;;7.57;2.03;;;17.80;64.80;;;;;;5028783;28;20217;-46
2023/04/11 02:59:09;;;;;;;5.37;1.60;;;17.80;64.80;;;;;;5046929;28;20529;-46
2023/04/11 03:01:40;;;;;;;4.90;1.87;;;17.80;64.80;;;;;;5052183;28;20187;-46
2023/04/11 03:04:07;;;;;;;5.13;2.17;;;17.80;64.80;;;;;;5048635;28;20277;-46
2023/04/11 03:06:38;;;;;;;5.00;2.13;;;17.80;64.80;;;;;;5046139;28;20206;-46
2023/04/11 03:09:09;;;;;;;6.67;2.13;;;17.90;64.90;;;;;;5052052;28;20209;-46
2023/04/11 03:11:41;;;;;;;7.10;2.10;;;17.80;64.80;;;;;;5056664;28;20627;-46
2023/04/11 03:14:15;;;;;;;5.37;2.10;;;17.80;64.70;;;;;;5027627;28;20255;-46
2023/04/11 03:16:46;;;;;;;9.80;2.40;;;17.80;64.70;;;;;;5050466;28;20232;-46
2023/04/11 03:19:15;;;;;;;4.83;1.83;;;17.80;64.60;;;;;;5050789;28;20209;-46
2023/04/11 03:21:45;;;;;;;6.23;2.03;;;17.80;64.50;;;;;;5054324;28;20210;-46
2023/04/11 03:24:14;;;;;;;7.83;2.10;;;17.80;64.50;;;;;;5054411;28;20280;-46
2023/04/11 03:26:41;;;;;;;8.43;2.20;;;17.80;64.50;;;;;;5049317;28;20210;-46
2023/04/11 03:29:13;;;;;;;5.83;2.00;;;17.80;64.50;;;;;;5050971;28;20276;-46
2023/04/11 03:31:44;;;;;;;5.53;1.90;;;17.80;64.50;;;;;;5048782;28;20219;-46
2023/04/11 03:34:20;;;;;;;6.40;2.10;;;17.70;64.30;;;;;;5050261;28;20216;-46
2023/04/11 03:36:50;;;;;;;5.83;1.70;;;17.70;64.30;;;;;;5046800;28;20226;-46
2023/04/11 03:39:24;;;;;;;5.67;2.07;;;17.80;64.50;;;;;;5049288;28;20612;-46
2023/04/11 03:41:55;;;;;;;7.37;2.17;;;17.80;64.40;;;;;;5038449;28;20217;-46
2023/04/11 03:44:25;;;;;;;4.63;1.73;;;17.70;64.30;;;;;;5029327;28;20222;-46
2023/04/11 03:46:58;;;;;;;6.67;2.20;;;17.70;64.20;;;;;;5047212;28;20206;-46
2023/04/11 03:49:29;;;;;;;7.37;2.27;;;17.70;64.20;;;;;;5048476;28;20198;-46
2023/04/11 03:52:02;;;;;;;5.93;2.00;;;17.70;64.10;;;;;;5049069;28;20210;-45
2023/04/11 03:54:40;;;;;;;5.67;1.73;;;17.70;64.10;;;;;;5031931;28;20505;-46
2023/04/11 03:57:11;;;;;;;6.50;2.43;;;17.70;64.00;;;;;;5052415;28;20463;-46
2023/04/11 03:59:38;;;;;;;4.17;1.77;;;17.70;64.00;;;;;;5030088;28;20209;-46
2023/04/11 04:02:08;;;;;;;5.37;2.00;;;17.70;63.90;;;;;;5031612;28;20552;-46
2023/04/11 04:04:37;;;;;;;9.23;2.23;;;17.70;64.00;;;;;;5046172;28;20194;-46
2023/04/11 04:07:09;;;;;;;5.80;2.00;;;17.70;64.00;;;;;;5045922;28;20210;-46
2023/04/11 04:09:40;;;;;;;7.47;2.07;;;17.70;63.80;;;;;;5032112;28;20202;-46
2023/04/11 04:12:11;;;;;;;7.20;2.47;;;17.70;63.80;;;;;;5023429;28;20872;-46
2023/04/11 04:14:42;;;;;;;6.70;2.27;;;17.70;63.80;;;;;;5029169;28;20202;-46
2023/04/11 04:17:15;;;;;;;5.17;1.83;;;17.70;63.70;;;;;;5049292;28;20520;-46
2023/04/11 04:19:49;;;;;;;4.67;1.77;;;17.70;63.70;;;;;;5043959;28;20217;-46
2023/04/11 04:22:25;;;;;;;5.03;2.00;;;17.70;63.70;;;;;;5032563;28;20194;-46
2023/04/11 04:24:56;;;;;;;8.07;2.17;;;17.70;63.70;;;;;;5048575;28;20699;-46
2023/04/11 04:27:25;;;;;;;6.13;2.47;;;17.70;63.80;;;;;;5054445;28;20209;-46
2023/04/11 04:29:56;;;;;;;9.23;2.43;;;17.70;63.70;;;;;;5051292;28;20198;-46
2023/04/11 04:32:30;;;;;;;5.73;1.80;;;17.70;63.60;;;;;;5017661;28;20636;-46
2023/04/11 04:35:00;;;;;;;5.73;1.93;;;17.70;63.70;;;;;;5039031;28;20198;-46
2023/04/11 04:37:29;;;;;;;5.20;2.20;;;17.70;63.60;;;;;;5017837;28;20652;-46
2023/04/11 04:40:12;;;;;;;6.50;1.77;;;17.70;63.60;;;;;;5056361;28;20268;-46
2023/04/11 04:43:17;;;;;;;7.97;2.50;;;17.70;63.60;;;;;;5016733;28;20619;-46
2023/04/11 04:45:44;;;;;;;4.83;1.33;;;17.60;63.80;;;;;;5040903;28;20194;-46
2023/04/11 04:48:16;;;;;;;5.47;2.13;;;17.60;63.60;;;;;;5035414;28;20186;-46
2023/04/11 04:50:49;;;;;;;5.40;1.60;;;17.60;63.50;;;;;;5047944;28;20493;-46
2023/04/11 04:53:20;;;;;;;5.90;2.10;;;17.60;63.50;;;;;;5052345;28;20203;-46
2023/04/11 04:55:50;;;;;;;4.50;1.50;;;17.60;64.00;;;;;;5050287;28;20283;-46
2023/04/11 04:58:20;;;;;;;7.00;2.13;;;17.60;63.30;;;;;;5052425;28;20202;-46
2023/04/11 05:00:56;;;;;;;4.83;1.80;;;17.60;63.30;;;;;;5048800;28;20205;-46
2023/04/11 05:03:27;;;;;;;5.80;2.00;;;17.60;63.30;;;;;;5051223;28;20206;-46
2023/04/11 05:05:58;;;;;;;2.70;1.40;;;17.60;63.20;;;;;;5052841;28;20186;-46
2023/04/11 05:08:29;;;;;;;5.80;2.40;;;17.60;63.10;;;;;;5028160;28;20203;-47
2023/04/11 05:10:57;;;;;;;5.73;1.93;;;17.60;63.00;;;;;;5055557;28;20199;-47
2023/04/11 05:13:29;;;;;;;6.37;1.90;;;17.60;63.00;;;;;;5052974;28;20201;-46
2023/04/11 05:15:59;;;;;;;4.60;2.20;;;17.60;63.00;;;;;;5034828;28;20679;-46
2023/04/11 05:18:30;;;;;;;6.17;2.27;;;17.60;63.00;;;;;;5051508;28;20182;-46
2023/04/11 05:21:01;;;;;;;4.07;1.50;;;17.60;63.00;;;;;;5047359;28;20556;-46
2023/04/11 05:23:33;;;;;;;5.80;2.13;;;17.60;62.90;;;;;;5052235;28;20573;-46
2023/04/11 05:26:04;;;;;;;7.53;2.20;;;17.60;63.00;;;;;;5032281;28;20564;-46
2023/04/11 05:28:36;;;;;;;6.60;2.47;;;17.60;62.90;;;;;;5024053;28;20199;-46
2023/04/11 05:31:07;;;;;;;5.70;2.03;;;17.50;62.90;;;;;;5023902;28;20233;-46
2023/04/11 05:33:37;;;;;;;5.00;1.90;;;17.60;62.90;;;;;;5031341;28;20202;-46
2023/04/11 05:36:07;;;;;;;5.70;1.70;;;17.50;63.00;;;;;;5011355;28;20198;-46
2023/04/11 05:38:37;;;;;;;4.97;2.10;;;17.60;63.00;;;;;;5026453;28;20194;-46
2023/04/11 05:41:13;;;;;;;8.73;2.37;;;17.50;62.90;;;;;;5029869;28;20226;-46
2023/04/11 05:43:43;;;;;;;5.93;1.80;;;17.60;62.90;;;;;;5028020;28;20538;-46
2023/04/11 05:46:13;;;;;;;8.33;1.93;;;17.50;62.80;;;;;;5031753;28;20633;-46
2023/04/11 05:48:45;;;;;;;5.63;1.73;;;17.50;62.70;;;;;;5028759;28;20203;-46
2023/04/11 05:51:12;;;;;;;6.27;2.20;;;17.50;62.60;;;;;;5030930;28;20538;-46
2023/04/11 05:53:45;;;;;;;8.50;2.43;;;17.50;62.50;;;;;;5030839;28;20206;-46
2023/04/11 05:56:15;;;;;;;4.37;2.00;;;17.60;62.50;;;;;;5024024;28;20277;-46
2023/04/11 05:58:47;;;;;;;6.50;2.30;;;17.60;62.40;;;;;;5027032;28;20217;-46
2023/04/11 06:01:22;;;;;;;3.30;2.00;;;17.60;62.30;;;;;;5025950;28;20583;-46
2023/04/11 06:03:53;;;;;;;5.27;1.90;;;17.60;62.30;;;;;;5031333;28;20206;-47
2023/04/11 06:06:25;;;;;;;3.80;1.67;;;17.60;62.20;;;;;;5030599;28;20203;-46
2023/04/11 06:08:56;;;;;;;5.83;2.03;;;17.50;62.00;;;;;;5025344;28;20230;-46
2023/04/11 06:11:26;;;;;;;6.67;2.10;;;17.60;62.00;;;;;;5018298;28;20563;-46
2023/04/11 06:13:59;;;;;;;6.60;2.10;;;17.50;62.00;;;;;;5031075;28;20226;-46
2023/04/11 06:16:32;;;;;;;4.90;2.00;;;17.60;62.00;;;;;;5031192;28;20241;-46
2023/04/11 06:19:01;;;;;;;5.37;2.17;;;17.60;61.90;;;;;;5027559;28;20222;-46
2023/04/11 06:21:35;;;;;;;4.80;2.30;;;17.60;61.80;;;;;;5029095;28;20199;-46
2023/04/11 06:24:10;;;;;;;4.17;1.70;;;17.50;61.70;;;;;;5034768;28;20230;-46
2023/04/11 06:26:41;;;;;;;5.07;2.07;;;17.60;61.60;;;;;;5045425;28;20204;-46
2023/04/11 06:29:20;;;;;;;5.70;1.90;;;17.60;61.50;;;;;;5050309;28;20198;-46
2023/04/11 06:31:54;;;;;;;6.20;2.03;;;17.60;61.60;;;;;;5047408;28;20222;-46
2023/04/11 06:34:26;;;;;;;5.47;1.90;;;17.60;61.50;;;;;;5048498;28;20226;-47
2023/04/11 06:36:58;;;;;;;6.93;2.13;;;17.60;61.30;;;;;;5040024;28;20210;-45
2023/04/11 06:39:30;;;;;;;10.13;2.37;;;17.60;61.30;;;;;;5051674;28;20208;-45
2023/04/11 06:42:00;;;;;;;6.23;2.63;;;17.60;61.20;;;;;;5050484;28;20195;-46
2023/04/11 06:44:31;;;;;;;8.63;2.37;;;17.60;61.20;;;;;;5048149;28;20574;-46
2023/04/11 06:47:01;;;;;;;7.13;2.50;;;17.60;61.20;;;;;;5050847;28;20194;-45
2023/04/11 06:49:33;;;;;;;12.03;3.13;;;17.60;61.10;;;;;;5027312;28;20191;-45
2023/04/11 06:52:06;;;;;;;22.00;6.03;;;17.60;61.40;;;;;;5045207;28;20194;-45
2023/04/11 06:54:36;;;;;;;31.97;7.23;;;17.60;61.60;;;;;;5044785;28;20279;-46
2023/04/11 06:57:05;;;;;;;31.07;9.20;;;17.70;62.00;;;;;;5049651;28;20217;-46
2023/04/11 06:59:38;;;;;;;34.67;9.60;;;17.70;62.70;;;;;;5040844;28;20208;-46
2023/04/11 07:02:09;;;;;;;34.27;9.73;;;17.80;63.40;;;;;;5049057;28;20202;-46
2023/04/11 07:04:42;;;;;;;30.57;8.47;;;17.90;63.60;;;;;;5046143;28;20200;-46
2023/04/11 07:07:13;;;;;;;26.53;8.17;;;18.00;63.00;;;;;;5048541;28;20582;-46
2023/04/11 07:09:42;;;;;;;30.87;8.20;;;18.10;63.20;;;;;;5049608;28;20213;-46
2023/04/11 07:12:13;;;;;;;32.10;8.63;;;18.20;63.10;;;;;;5038934;28;20603;-46
2023/04/11 07:14:44;;;;;;;25.27;7.20;;;18.30;62.80;;;;;;5030349;28;20186;-46
2023/04/11 07:17:13;;;;;;;26.53;7.77;;;18.30;63.00;;;;;;5050888;28;20230;-46
2023/04/11 07:19:43;;;;;;;29.83;7.73;;;18.40;62.80;;;;;;5048845;28;20214;-46
2023/04/11 07:22:15;;;;;;;22.97;6.77;;;18.50;62.80;;;;;;5050844;28;20199;-46
2023/04/11 07:24:49;;;;;;;25.70;7.63;;;18.60;62.00;;;;;;5046356;28;20260;-46
2023/04/11 07:27:22;;;;;;;24.47;6.53;;;18.70;61.90;;;;;;5031688;28;20308;-46
2023/04/11 07:29:50;;;;;;;23.47;6.63;;;18.80;61.20;;;;;;5048783;28;20210;-46
2023/04/11 07:32:19;;;;;;;16.77;5.73;;;18.80;61.00;;;;;;5030810;28;20301;-47
2023/04/11 07:34:49;;;;;;;21.17;6.07;;;18.90;59.50;;;;;;5030068;28;20225;-46
2023/04/11 07:37:29;;;;;;;24.50;7.07;;;19.00;60.60;;;;;;5037059;28;20578;-46
2023/04/11 07:40:07;;;;;;;15.47;5.90;;;19.00;60.90;;;;;;5049426;28;20186;-46
2023/04/11 07:42:38;;;;;;;16.13;4.73;;;19.10;60.80;;;;;;5043663;28;20666;-46
2023/04/11 07:45:07;;;;;;;16.70;5.33;;;19.20;59.10;;;;;;5048487;28;20195;-46
2023/04/11 07:47:37;;;;;;;16.87;5.03;;;19.20;59.80;;;;;;5044980;28;20693;-46
2023/04/11 07:50:10;;;;;;;12.93;5.50;;;19.30;59.20;;;;;;5048832;28;20214;-47
2023/04/11 07:52:42;;;;;;;12.13;4.57;;;19.30;59.10;;;;;;5046674;28;20206;-46
2023/04/11 07:55:13;;;;;;;13.23;4.50;;;19.40;58.40;;;;;;5028986;28;20199;-46
2023/04/11 07:57:41;;;;;;;14.87;4.47;;;19.40;58.40;;;;;;5036933;28;20214;-47
2023/04/11 08:00:27;;;;;;;13.80;4.80;;;19.50;58.60;;;;;;5031346;28;20229;-47
2023/04/11 08:03:03;;;;;;;11.63;3.90;;;19.50;57.90;;;;;;5046037;28;20198;-47
2023/04/11 08:05:45;;;;;;;11.17;4.00;;;19.50;58.40;;;;;;5048332;28;20198;-46
2023/04/11 08:08:19;;;;;;;11.47;4.13;;;19.50;58.00;;;;;;5048061;28;20211;-46
2023/04/11 08:10:50;;;;;;;11.87;4.00;;;19.50;58.20;;;;;;5038251;28;20243;-46
2023/04/11 08:13:22;;;;;;;9.77;3.80;;;19.60;58.00;;;;;;5048339;28;20773;-46
2023/04/11 08:15:54;;;;;;;12.87;3.73;;;19.60;58.00;;;;;;5048720;28;20202;-46
2023/04/11 08:18:31;;;;;;;11.93;3.73;;;19.70;57.80;;;;;;5047689;28;20407;-46
2023/04/11 08:21:00;;;;;;;9.80;3.27;;;19.70;57.80;;;;;;5051107;28;20198;-46
2023/04/11 08:23:30;;;;;;;11.30;3.63;;;19.70;57.90;;;;;;5029934;28;20191;-47
2023/04/11 08:26:03;;;;;;;9.90;3.30;;;19.80;57.50;;;;;;5047842;28;20576;-46
2023/04/11 08:28:45;;;;;;;7.57;2.93;;;19.80;57.10;;;;;;5043338;28;20281;-47
2023/04/11 08:31:14;;;;;;;11.43;3.07;;;19.80;57.30;;;;;;5045573;28;20284;-47
2023/04/11 08:33:44;;;;;;;8.77;3.43;;;19.90;57.40;;;;;;5048471;28;20245;-46
2023/04/11 08:36:12;;;;;;;10.17;3.03;;;19.90;57.30;;;;;;5035225;28;20198;-46
2023/04/11 08:38:43;;;;;;;8.40;3.03;;;19.90;57.40;;;;;;5046077;28;20654;-46
2023/04/11 08:41:13;;;;;;;14.40;3.03;;;19.90;57.00;;;;;;5030338;28;20539;-46
2023/04/11 08:43:44;;;;;;;6.30;2.80;;;20.00;56.80;;;;;;5045522;28;20198;-46
2023/04/11 08:46:17;;;;;;;7.27;2.57;;;19.90;56.80;;;;;;5031433;28;20651;-47
2023/04/11 08:48:50;;;;;;;7.10;2.70;;;20.00;57.30;;;;;;5045241;28;20202;-46
2023/04/11 08:51:26;;;;;;;6.23;2.57;;;20.00;56.20;;;;;;5051494;28;20198;-46
2023/04/11 08:54:17;;;;;;;5.27;2.37;;;20.10;56.50;;;;;;5047839;28;20226;-46
2023/04/11 08:56:50;;;;;;;6.50;2.70;;;20.10;56.80;;;;;;5042631;28;20218;-47
2023/04/11 08:59:20;;;;;;;8.47;2.63;;;20.20;56.60;;;;;;5048157;28;20301;-46
2023/04/11 09:02:03;;;;;;;7.40;2.53;;;20.20;56.10;;;;;;5047234;28;20199;-46
2023/04/11 09:04:42;;;;;;;5.93;2.17;;;20.20;56.50;;;;;;5047978;28;20182;-46
2023/04/11 09:07:17;;;;;;;7.57;2.53;;;20.20;56.00;;;;;;5046521;28;20256;-46
2023/04/11 09:09:55;;;;;;;6.30;1.93;;;20.20;55.60;;;;;;5033116;28;20201;-46
2023/04/11 09:12:30;;;;;;;5.40;1.80;;;20.30;56.40;;;;;;5045581;28;20291;-46
2023/04/11 09:15:18;;;;;;;7.07;2.13;;;20.30;55.80;;;;;;5042344;28;20198;-47
2023/04/11 09:17:46;;;;;;;5.17;1.90;;;20.30;56.10;;;;;;5048825;28;20219;-47
2023/04/11 09:20:24;;;;;;;7.43;2.30;;;20.30;55.70;;;;;;5050125;28;20210;-47
2023/04/11 09:22:59;;;;;;;3.80;1.70;;;20.30;55.90;;;;;;5034085;28;20620;-46
2023/04/11 09:25:30;;;;;;;8.33;2.17;;;20.40;55.70;;;;;;5051909;28;20694;-47
2023/04/11 09:28:09;;;;;;;56.90;5.13;;;20.40;54.90;;;;;;5041728;28;20214;-46
2023/04/11 09:30:52;;;;;;;29.60;3.70;;;20.30;54.90;;;;;;5031624;28;20190;-47
2023/04/11 09:33:22;;;;;;;20.33;3.53;;;20.20;55.10;;;;;;5020879;28;20221;-45
2023/04/11 09:35:56;;;;;;;13.00;3.40;;;20.10;56.70;;;;;;5051702;28;20203;-47
2023/04/11 09:38:33;;;;;;;13.53;3.07;;;20.10;57.80;;;;;;5051595;28;20218;-47
2023/04/11 09:41:06;;;;;;;15.37;3.43;;;20.10;57.90;;;;;;5029086;28;20194;-46
2023/04/11 09:43:51;;;;;;;15.07;2.90;;;20.00;58.10;;;;;;5034258;28;20222;-45
2023/04/11 09:46:23;;;;;;;9.03;2.77;;;20.00;58.60;;;;;;5037227;28;20194;-46
2023/04/11 09:48:55;;;;;;;8.43;2.37;;;19.90;59.10;;;;;;5049972;28;20193;-46
2023/04/11 09:51:27;;;;;;;8.30;2.53;;;19.90;58.70;;;;;;5053486;28;20206;-46
2023/04/11 09:54:25;;;;;;;10.87;2.33;;;19.90;59.40;;;;;;5051821;28;20248;-46
2023/04/11 09:56:55;;;;;;;6.93;2.43;;;19.90;59.40;;;;;;5045712;28;20589;-46
2023/04/11 09:59:30;;;;;;;7.07;2.47;;;19.90;59.20;;;;;;5050863;28;20281;-46
2023/04/11 10:02:02;;;;;;;4.60;2.30;;;19.90;59.20;;;;;;5033410;28;20209;-45
2023/04/11 10:04:33;;;;;;;6.70;2.33;;;19.90;59.90;;;;;;5038129;28;20195;-46
2023/04/11 10:07:19;;;;;;;4.47;1.93;;;19.80;60.00;;;;;;5047678;28;20245;-46
2023/04/11 10:09:48;;;;;;;6.83;2.30;;;19.80;60.00;;;;;;5050761;28;20199;-46
2023/04/11 10:12:30;;;;;;;5.67;2.43;;;19.80;60.10;;;;;;5033164;28;20190;-45
2023/04/11 10:15:07;;;;;;;5.27;2.23;;;19.80;60.10;;;;;;5049055;28;20201;-46
2023/04/11 10:17:43;;;;;;;5.17;2.07;;;19.70;59.80;;;;;;5019943;28;20237;-46
2023/04/11 10:20:30;;;;;;;6.00;1.97;;;19.80;60.50;;;;;;5046849;28;20209;-46
2023/04/11 10:23:09;;;;;;;3.90;1.77;;;19.80;60.40;;;;;;5044299;28;20199;-46
2023/04/11 10:26:13;;;;;;;6.60;2.37;;;19.70;60.00;;;;;;5048374;28;20317;-46
2023/04/11 10:28:44;;;;;;;7.27;2.40;;;19.70;59.90;;;;;;5032314;28;20244;-45
2023/04/11 10:31:16;;;;;;;6.73;2.30;;;19.60;60.20;;;;;;5047119;28;20663;-47
2023/04/11 10:34:13;;;;;;;5.23;1.93;;;19.60;60.00;;;;;;5034053;28;20260;-46
2023/04/11 10:37:09;;;;;;;4.80;1.80;;;19.60;60.00;;;;;;5041258;28;20515;-46
2023/04/11 10:40:08;;;;;;;5.53;2.10;;;19.60;59.50;;;;;;5029458;28;20214;-46
2023/04/11 10:42:46;;;;;;;7.33;2.00;;;19.60;59.90;;;;;;5044195;28;20256;-47
2023/04/11 10:45:25;;;;;;;4.13;1.90;;;19.50;60.00;;;;;;5045327;28;20763;-46
2023/04/11 10:48:10;;;;;;;4.80;2.13;;;19.50;60.20;;;;;;5042292;28;20201;-46
2023/04/11 10:50:46;;;;;;;6.37;2.13;;;19.50;60.40;;;;;;5018907;28;20202;-46
2023/04/11 10:53:36;;;;;;;3.50;1.60;;;19.50;60.40;;;;;;5050053;28;20201;-46
2023/04/11 10:56:07;;;;;;;5.97;1.80;;;19.40;60.10;;;;;;5035585;28;20221;-46
2023/04/11 10:58:39;;;;;;;4.23;1.60;;;19.40;59.80;;;;;;5047799;28;20659;-46
2023/04/11 11:01:17;;;;;;;4.00;2.07;;;19.40;59.80;;;;;;5045938;28;20548;-48
2023/04/11 11:04:08;;;;;;;5.57;1.83;;;19.40;60.10;;;;;;5040898;28;20213;-47
2023/04/11 11:06:53;;;;;;;6.20;1.90;;;19.50;58.80;;;;;;5045307;28;20202;-46
2023/04/11 11:09:27;;;;;;;11.40;1.93;;;19.50;59.10;;;;;;5044503;28;20202;-47
2023/04/11 11:12:17;;;;;;;4.77;2.30;;;19.60;59.10;;;;;;5026785;28;20218;-47
2023/04/11 11:14:53;;;;;;;5.63;2.37;;;19.60;58.90;;;;;;5046595;28;20206;-46
2023/04/11 11:17:24;;;;;;;4.77;2.40;;;19.70;58.60;;;;;;5050930;28;20190;-47
2023/04/11 11:19:56;;;;;;;4.73;2.30;;;19.80;58.40;;;;;;5048105;28;20209;-47
2023/04/11 11:22:27;;;;;;;3.97;2.23;;;19.80;58.00;;;;;;5048728;28;20201;-46
2023/04/11 11:25:07;;;;;;;7.13;1.93;;;19.90;58.00;;;;;;5047750;28;20809;-46
2023/04/11 11:27:38;;;;;;;3.60;2.30;;;19.90;57.80;;;;;;5032424;28;20248;-45
2023/04/11 11:30:17;;;;;;;5.80;1.90;;;20.00;57.40;;;;;;5044040;28;20240;-46
2023/04/11 11:32:51;;;;;;;3.97;2.07;;;20.10;57.40;;;;;;5025264;28;20215;-46
2023/04/11 11:35:23;;;;;;;4.07;1.90;;;20.10;56.80;;;;;;5043097;28;20191;-46
2023/04/11 11:37:53;;;;;;;4.07;1.80;;;20.10;56.20;;;;;;5031644;28;20208;-46
2023/04/11 11:40:25;;;;;;;5.70;1.97;;;20.20;56.40;;;;;;5030780;28;20351;-46
2023/04/11 11:42:55;;;;;;;5.57;2.13;;;20.30;56.50;;;;;;5044626;28;20331;-46
2023/04/11 11:45:25;;;;;;;5.10;1.37;;;20.30;56.40;;;;;;5049030;28;20556;-46
2023/04/11 11:47:57;;;;;;;4.03;1.67;;;20.40;56.20;;;;;;5031745;28;20195;-46
2023/04/11 11:50:31;;;;;;;3.13;1.53;;;20.40;56.00;;;;;;5047800;28;20194;-46
2023/04/11 11:53:14;;;;;;;6.47;1.83;;;20.40;56.00;;;;;;5047676;28;20202;-47
2023/04/11 11:55:46;;;;;;;4.57;1.50;;;20.50;56.60;;;;;;5045292;28;20209;-47
2023/04/11 11:58:18;;;;;;;4.33;1.57;;;20.50;56.20;;;;;;5031629;28;20226;-47
2023/04/11 12:00:50;;;;;;;5.83;2.10;;;20.50;56.30;;;;;;5029859;28;20252;-47
2023/04/11 12:03:28;;;;;;;5.00;1.90;;;20.50;56.20;;;;;;5033406;28;20209;-47
2023/04/11 12:05:58;;;;;;;5.30;2.00;;;20.50;56.00;;;;;;5037082;28;20636;-47
2023/04/11 12:08:32;;;;;;;6.80;1.70;;;20.60;56.30;;;;;;5050610;28;20206;-47
2023/04/11 12:11:11;;;;;;;8.83;2.00;;;20.60;56.40;;;;;;5048462;28;20225;-47
2023/04/11 12:13:39;;;;;;;4.03;1.67;;;20.60;56.10;;;;;;5033928;28;20189;-47
2023/04/11 12:16:20;;;;;;;2.97;1.37;;;20.70;55.80;;;;;;5041068;28;20263;-46
2023/04/11 12:18:49;;;;;;;2.63;1.40;;;20.70;55.90;;;;;;5029933;28;20708;-46
2023/04/11 12:21:19;;;;;;;4.30;2.00;;;20.80;55.80;;;;;;5038089;28;20194;-47
2023/04/11 12:23:53;;;;;;;4.83;1.43;;;20.80;55.90;;;;;;5042568;28;20260;-47
2023/04/11 12:26:24;;;;;;;6.23;1.57;;;20.80;55.80;;;;;;5048880;28;20279;-47
2023/04/11 12:28:52;;;;;;;3.93;1.70;;;20.90;55.10;;;;;;5045366;28;20819;-47
2023/04/11 12:31:25;;;;;;;3.73;1.70;;;20.90;55.40;;;;;;5046184;28;20214;-47
2023/04/11 12:33:58;;;;;;;3.50;1.20;;;20.90;55.40;;;;;;5047863;28;20639;-47
2023/04/11 12:36:30;;;;;;;3.77;1.40;;;21.00;55.40;;;;;;5048573;28;20658;-47
2023/04/11 12:38:59;;;;;;;2.30;1.23;;;21.00;55.10;;;;;;5043264;28;20226;-47
2023/04/11 12:41:30;;;;;;;2.97;1.50;;;21.00;55.30;;;;;;5048407;28;20199;-47
2023/04/11 12:44:01;;;;;;;2.70;1.50;;;21.00;55.10;;;;;;5045397;28;20232;-46
2023/04/11 12:46:32;;;;;;;4.43;1.57;;;21.00;55.30;;;;;;5056671;28;20659;-47
2023/04/11 12:49:03;;;;;;;3.17;1.33;;;21.00;55.00;;;;;;5051481;28;20206;-47
2023/04/11 12:51:37;;;;;;;4.40;1.20;;;21.10;55.20;;;;;;5034211;28;20203;-47
2023/04/11 12:54:11;;;;;;;2.80;1.10;;;21.10;55.40;;;;;;5047265;28;20675;-47
2023/04/11 12:56:42;;;;;;;1.90;0.90;;;21.10;55.50;;;;;;5037407;28;20219;-47
2023/04/11 12:59:13;;;;;;;3.60;1.50;;;21.10;55.70;;;;;;5034440;28;20210;-47
2023/04/11 13:01:42;;;;;;;1.97;1.23;;;21.20;55.90;;;;;;5055796;28;20213;-47
2023/04/11 13:04:11;;;;;;;2.03;1.07;;;21.20;55.30;;;;;;5026328;28;20210;-47
2023/04/11 13:06:46;;;;;;;4.67;1.40;;;21.30;55.60;;;;;;5046318;28;20198;-47
2023/04/11 13:09:15;;;;;;;2.50;1.30;;;21.30;55.40;;;;;;5051358;28;20256;-47
2023/04/11 13:11:48;;;;;;;2.70;1.17;;;21.30;54.70;;;;;;5046770;28;20586;-46
2023/04/11 13:14:18;;;;;;;2.77;1.00;;;21.30;55.30;;;;;;5052125;28;20659;-46